sensor_id;sensor_type;location;lat;lon;timestamp;pressure;altitude;pressure_sealevel;temperature;humidity
76374;BME280;65197;50.164;8.012;2023-12-20T00:01:00;73686.28;;;-144.13;100.00
76374;BME280;65197;50.164;8.012;2023-12-20T00:03:25;73688.25;;;-144.13;100.00
76374;BME280;65197;50.164;8.012;2023-12-20T00:05:51;73686.28;;;-144.13;100.00
76374;BME280;65197;50.164;8.012;2023-12-20T00:08:16;73670.69;;;-144.13;100.00
76374;BME280;65197;50.164;8.012;2023-12-20T00:10:43;73678.50;;;-144.13;100.00
76374;BME280;65197;50.164;8.012;2023-12-20T00:13:09;73682.38;;;-144.13;100.00
76374;BME280;65197;50.164;8.012;2023-12-20T00:15:34;73674.59;;;-144.13;100.00
76374;BME280;65197;50.164;8.012;2023-12-20T00:18:00;73672.63;;;-144.13;100.00
76374;BME280;65197;50.164;8.012;2023-12-20T00:20:26;73676.53;;;-144.13;100.00
76374;BME280;65197;50.164;8.012;2023-12-20T00:22:52;73674.59;;;-144.13;100.00
76374;BME280;65197;50.164;8.012;2023-12-20T00:25:17;73676.53;;;-144.13;100.00
76374;BME280;65197;50.164;8.012;2023-12-20T00:27:43;73670.69;;;-144.13;100.00
76374;BME280;65197;50.164;8.012;2023-12-20T00:30:09;73670.69;;;-144.13;100.00
76374;BME280;65197;50.164;8.012;2023-12-20T00:32:35;73672.63;;;-144.13;100.00
76374;BME280;65197;50.164;8.012;2023-12-20T00:35:01;73666.78;;;-144.13;100.00
76374;BME280;65197;50.164;8.012;2023-12-20T00:37:26;73670.69;;;-144.13;100.00
76374;BME280;65197;50.164;8.012;2023-12-20T00:39:51;73668.72;;;-144.13;100.00
76374;BME280;65197;50.164;8.012;2023-12-20T00:42:17;73657.03;;;-144.13;100.00
76374;BME280;65197;50.164;8.012;2023-12-20T00:44:42;73657.03;;;-144.13;100.00
76374;BME280;65197;50.164;8.012;2023-12-20T00:47:08;73666.78;;;-144.13;100.00
76374;BME280;65197;50.164;8.012;2023-12-20T00:49:33;73662.88;;;-144.13;100.00
76374;BME280;65197;50.164;8.012;2023-12-20T00:51:58;73658.97;;;-144.13;100.00
76374;BME280;65197;50.164;8.012;2023-12-20T00:54:24;73657.03;;;-144.13;100.00
76374;BME280;65197;50.164;8.012;2023-12-20T00:56:49;73649.22;;;-144.13;100.00
76374;BME280;65197;50.164;8.012;2023-12-20T00:59:16;73653.13;;;-144.13;100.00
76374;BME280;65197;50.164;8.012;2023-12-20T01:01:41;73651.19;;;-144.13;100.00
76374;BME280;65197;50.164;8.012;2023-12-20T01:04:07;73647.28;;;-144.13;100.00
76374;BME280;65197;50.164;8.012;2023-12-20T01:06:32;73645.31;;;-144.13;100.00
76374;BME280;65197;50.164;8.012;2023-12-20T01:08:58;73647.28;;;-144.13;100.00
76374;BME280;65197;50.164;8.012;2023-12-20T01:11:23;73643.38;;;-144.13;100.00
76374;BME280;65197;50.164;8.012;2023-12-20T01:13:48;73643.38;;;-144.13;100.00
76374;BME280;65197;50.164;8.012;2023-12-20T01:16:14;73643.38;;;-144.13;100.00
76374;BME280;65197;50.164;8.012;2023-12-20T01:18:39;73639.47;;;-144.13;100.00
76374;BME280;65197;50.164;8.012;2023-12-20T01:21:05;73643.38;;;-144.13;100.00
76374;BME280;65197;50.164;8.012;2023-12-20T01:23:31;73643.38;;;-144.13;100.00
76374;BME280;65197;50.164;8.012;2023-12-20T01:25:57;73639.47;;;-144.13;100.00
76374;BME280;65197;50.164;8.012;2023-12-20T01:28:25;73641.41;;;-144.13;100.00
76374;BME280;65197;50.164;8.012;2023-12-20T01:30:50;73643.38;;;-144.13;100.00
76374;BME280;65197;50.164;8.012;2023-12-20T01:33:15;73631.66;;;-144.13;100.00
76374;BME280;65197;50.164;8.012;2023-12-20T01:35:41;73635.56;;;-144.13;100.00
76374;BME280;65197;50.164;8.012;2023-12-20T01:38:06;73643.38;;;-144.13;100.00
76374;BME280;65197;50.164;8.012;2023-12-20T01:40:32;73641.41;;;-144.13;100.00
76374;BME280;65197;50.164;8.012;2023-12-20T01:43:17;73627.78;;;-144.13;100.00
76374;BME280;65197;50.164;8.012;2023-12-20T01:45:43;73635.56;;;-144.13;100.00
76374;BME280;65197;50.164;8.012;2023-12-20T01:48:08;73643.38;;;-144.13;100.00
76374;BME280;65197;50.164;8.012;2023-12-20T01:50:36;73631.66;;;-144.13;100.00
76374;BME280;65197;50.164;8.012;2023-12-20T01:53:03;73631.66;;;-144.13;100.00
76374;BME280;65197;50.164;8.012;2023-12-20T01:55:32;73627.78;;;-144.13;100.00
76374;BME280;65197;50.164;8.012;2023-12-20T01:57:58;73619.97;;;-144.13;100.00
76374;BME280;65197;50.164;8.012;2023-12-20T02:00:25;73619.97;;;-144.13;100.00
76374;BME280;65197;50.164;8.012;2023-12-20T02:02:53;73619.97;;;-144.13;100.00
76374;BME280;65197;50.164;8.012;2023-12-20T02:05:21;73616.06;;;-144.13;100.00
76374;BME280;65197;50.164;8.012;2023-12-20T02:07:48;73618.00;;;-144.13;100.00
76374;BME280;65197;50.164;8.012;2023-12-20T02:10:13;73619.97;;;-144.13;100.00
76374;BME280;65197;50.164;8.012;2023-12-20T02:12:40;73619.97;;;-144.13;100.00
76374;BME280;65197;50.164;8.012;2023-12-20T02:15:05;73619.97;;;-144.13;100.00
76374;BME280;65197;50.164;8.012;2023-12-20T02:17:32;73618.00;;;-144.13;100.00
76374;BME280;65197;50.164;8.012;2023-12-20T02:19:57;73619.97;;;-144.13;100.00
76374;BME280;65197;50.164;8.012;2023-12-20T02:22:23;73619.97;;;-144.13;100.00
76374;BME280;65197;50.164;8.012;2023-12-20T02:24:48;73618.00;;;-144.13;100.00
76374;BME280;65197;50.164;8.012;2023-12-20T02:27:15;73610.22;;;-144.13;100.00
76374;BME280;65197;50.164;8.012;2023-12-20T02:29:42;73614.13;;;-144.13;100.00
76374;BME280;65197;50.164;8.012;2023-12-20T02:32:08;73612.16;;;-144.13;100.00
76374;BME280;65197;50.164;8.012;2023-12-20T02:34:33;73619.97;;;-144.13;100.00
76374;BME280;65197;50.164;8.012;2023-12-20T02:36:58;73616.06;;;-144.13;100.00
76374;BME280;65197;50.164;8.012;2023-12-20T02:39:24;73612.16;;;-144.13;100.00
76374;BME280;65197;50.164;8.012;2023-12-20T02:41:49;73612.16;;;-144.13;100.00
76374;BME280;65197;50.164;8.012;2023-12-20T02:44:14;73619.97;;;-144.13;100.00
76374;BME280;65197;50.164;8.012;2023-12-20T02:46:40;73619.97;;;-144.13;100.00
76374;BME280;65197;50.164;8.012;2023-12-20T02:49:06;73612.16;;;-144.13;100.00
76374;BME280;65197;50.164;8.012;2023-12-20T02:51:31;73608.25;;;-144.13;100.00
76374;BME280;65197;50.164;8.012;2023-12-20T02:53:57;73619.97;;;-144.13;100.00
76374;BME280;65197;50.164;8.012;2023-12-20T02:56:22;73616.06;;;-144.13;100.00
76374;BME280;65197;50.164;8.012;2023-12-20T02:58:48;73610.22;;;-144.13;100.00
76374;BME280;65197;50.164;8.012;2023-12-20T03:01:13;73616.06;;;-144.13;100.00
76374;BME280;65197;50.164;8.012;2023-12-20T03:03:39;73600.47;;;-144.13;100.00
76374;BME280;65197;50.164;8.012;2023-12-20T03:06:04;73612.16;;;-144.13;100.00
76374;BME280;65197;50.164;8.012;2023-12-20T03:08:29;73608.25;;;-144.13;100.00
76374;BME280;65197;50.164;8.012;2023-12-20T03:10:55;73610.22;;;-144.13;100.00
76374;BME280;65197;50.164;8.012;2023-12-20T03:13:20;73608.25;;;-144.13;100.00
76374;BME280;65197;50.164;8.012;2023-12-20T03:15:46;73612.16;;;-144.13;100.00
76374;BME280;65197;50.164;8.012;2023-12-20T03:18:11;73610.22;;;-144.13;100.00
76374;BME280;65197;50.164;8.012;2023-12-20T03:20:37;73614.13;;;-144.13;100.00
76374;BME280;65197;50.164;8.012;2023-12-20T03:23:02;73612.16;;;-144.13;100.00
76374;BME280;65197;50.164;8.012;2023-12-20T03:25:28;73616.06;;;-144.13;100.00
76374;BME280;65197;50.164;8.012;2023-12-20T03:27:53;73623.88;;;-144.13;100.00
76374;BME280;65197;50.164;8.012;2023-12-20T03:30:19;73623.88;;;-144.13;100.00
76374;BME280;65197;50.164;8.012;2023-12-20T03:32:44;73621.91;;;-144.13;100.00
76374;BME280;65197;50.164;8.012;2023-12-20T03:35:10;73627.78;;;-144.13;100.00
76374;BME280;65197;50.164;8.012;2023-12-20T03:37:36;73623.88;;;-144.13;100.00
76374;BME280;65197;50.164;8.012;2023-12-20T03:40:02;73618.00;;;-144.13;100.00
76374;BME280;65197;50.164;8.012;2023-12-20T03:42:28;73619.97;;;-144.13;100.00
76374;BME280;65197;50.164;8.012;2023-12-20T03:44:53;73627.78;;;-144.13;100.00
76374;BME280;65197;50.164;8.012;2023-12-20T03:47:18;73619.97;;;-144.13;100.00
76374;BME280;65197;50.164;8.012;2023-12-20T03:49:44;73623.88;;;-144.13;100.00
76374;BME280;65197;50.164;8.012;2023-12-20T03:52:09;73625.81;;;-144.13;100.00
76374;BME280;65197;50.164;8.012;2023-12-20T03:54:35;73627.78;;;-144.13;100.00
76374;BME280;65197;50.164;8.012;2023-12-20T03:57:00;73623.88;;;-144.13;100.00
76374;BME280;65197;50.164;8.012;2023-12-20T03:59:26;73625.81;;;-144.13;100.00
76374;BME280;65197;50.164;8.012;2023-12-20T04:01:51;73643.38;;;-144.13;100.00
76374;BME280;65197;50.164;8.012;2023-12-20T04:04:17;73647.28;;;-144.13;100.00
76374;BME280;65197;50.164;8.012;2023-12-20T04:06:42;73655.06;;;-144.13;100.00
76374;BME280;65197;50.164;8.012;2023-12-20T04:09:08;73662.88;;;-144.13;100.00
76374;BME280;65197;50.164;8.012;2023-12-20T04:11:37;73670.69;;;-144.13;100.00
76374;BME280;65197;50.164;8.012;2023-12-20T04:14:02;73686.28;;;-144.13;100.00
76374;BME280;65197;50.164;8.012;2023-12-20T04:16:30;73682.38;;;-144.13;100.00
76374;BME280;65197;50.164;8.012;2023-12-20T04:18:55;73698.00;;;-144.13;100.00
76374;BME280;65197;50.164;8.012;2023-12-20T04:21:20;73709.69;;;-144.13;100.00
76374;BME280;65197;50.164;8.012;2023-12-20T04:23:46;73733.09;;;-144.13;100.00
76374;BME280;65197;50.164;8.012;2023-12-20T04:26:11;73744.81;;;-144.13;100.00
76374;BME280;65197;50.164;8.012;2023-12-20T04:28:36;73758.47;;;-144.13;100.00
76374;BME280;65197;50.164;8.012;2023-12-20T04:31:02;73768.22;;;-144.13;100.00
76374;BME280;65197;50.164;8.012;2023-12-20T04:33:27;73783.84;;;-144.13;100.00
76374;BME280;65197;50.164;8.012;2023-12-20T04:35:53;73791.63;;;-144.13;100.00
76374;BME280;65197;50.164;8.012;2023-12-20T04:38:18;73815.03;;;-144.13;100.00
76374;BME280;65197;50.164;8.012;2023-12-20T04:40:44;73834.56;;;-144.13;100.00
76374;BME280;65197;50.164;8.012;2023-12-20T04:43:09;73854.06;;;-144.13;100.00
76374;BME280;65197;50.164;8.012;2023-12-20T04:45:34;73861.88;;;-144.13;100.00
76374;BME280;65197;50.164;8.012;2023-12-20T04:48:01;73877.47;;;-144.13;100.00
76374;BME280;65197;50.164;8.012;2023-12-20T04:50:26;73879.44;;;-144.13;100.00
76374;BME280;65197;50.164;8.012;2023-12-20T04:52:52;73873.56;;;-144.13;100.00
76374;BME280;65197;50.164;8.012;2023-12-20T04:55:17;73865.78;;;-144.13;100.00
76374;BME280;65197;50.164;8.012;2023-12-20T04:57:43;73861.88;;;-144.13;100.00
76374;BME280;65197;50.164;8.012;2023-12-20T05:00:08;73857.97;;;-144.13;100.00
76374;BME280;65197;50.164;8.012;2023-12-20T05:02:37;73863.81;;;-144.13;100.00
76374;BME280;65197;50.164;8.012;2023-12-20T05:05:02;73861.88;;;-144.13;100.00
76374;BME280;65197;50.164;8.012;2023-12-20T05:07:27;73854.06;;;-144.13;100.00
76374;BME280;65197;50.164;8.012;2023-12-20T05:09:53;73857.97;;;-144.13;100.00
76374;BME280;65197;50.164;8.012;2023-12-20T05:12:18;73861.88;;;-144.13;100.00
76374;BME280;65197;50.164;8.012;2023-12-20T05:14:44;73865.78;;;-144.13;100.00
76374;BME280;65197;50.164;8.012;2023-12-20T05:17:09;73863.81;;;-144.13;100.00
76374;BME280;65197;50.164;8.012;2023-12-20T05:19:35;73861.88;;;-144.13;100.00
76374;BME280;65197;50.164;8.012;2023-12-20T05:22:01;73863.81;;;-144.13;100.00
76374;BME280;65197;50.164;8.012;2023-12-20T05:24:27;73873.56;;;-144.13;100.00
76374;BME280;65197;50.164;8.012;2023-12-20T05:26:53;73881.38;;;-144.13;100.00
76374;BME280;65197;50.164;8.012;2023-12-20T05:29:18;73887.22;;;-144.13;100.00
76374;BME280;65197;50.164;8.012;2023-12-20T05:31:43;73896.97;;;-144.13;100.00
76374;BME280;65197;50.164;8.012;2023-12-20T05:34:09;73895.03;;;-144.13;100.00
76374;BME280;65197;50.164;8.012;2023-12-20T05:36:34;73898.94;;;-144.13;100.00
76374;BME280;65197;50.164;8.012;2023-12-20T05:39:00;73898.94;;;-144.13;100.00
76374;BME280;65197;50.164;8.012;2023-12-20T05:41:25;73895.03;;;-144.13;100.00
76374;BME280;65197;50.164;8.012;2023-12-20T05:43:51;73895.03;;;-144.13;100.00
76374;BME280;65197;50.164;8.012;2023-12-20T05:46:16;73887.22;;;-144.13;100.00
76374;BME280;65197;50.164;8.012;2023-12-20T05:48:41;73902.84;;;-144.13;100.00
76374;BME280;65197;50.164;8.012;2023-12-20T05:51:07;73904.78;;;-144.13;100.00
76374;BME280;65197;50.164;8.012;2023-12-20T05:53:33;73914.53;;;-144.13;100.00
76374;BME280;65197;50.164;8.012;2023-12-20T05:55:58;73924.28;;;-144.13;100.00
76374;BME280;65197;50.164;8.012;2023-12-20T05:58:24;73934.06;;;-144.13;100.00
76374;BME280;65197;50.164;8.012;2023-12-20T06:00:50;73937.94;;;-144.13;100.00
76374;BME280;65197;50.164;8.012;2023-12-20T06:03:15;73947.72;;;-144.13;100.00
76374;BME280;65197;50.164;8.012;2023-12-20T06:05:41;73951.59;;;-144.13;100.00
76374;BME280;65197;50.164;8.012;2023-12-20T06:08:06;73943.81;;;-144.13;100.00
76374;BME280;65197;50.164;8.012;2023-12-20T06:10:32;73930.16;;;-144.13;100.00
76374;BME280;65197;50.164;8.012;2023-12-20T06:12:57;73939.91;;;-144.13;100.00
76374;BME280;65197;50.164;8.012;2023-12-20T06:15:25;73945.75;;;-144.13;100.00
76374;BME280;65197;50.164;8.012;2023-12-20T06:17:51;73951.59;;;-144.13;100.00
76374;BME280;65197;50.164;8.012;2023-12-20T06:20:16;73955.50;;;-144.13;100.00
76374;BME280;65197;50.164;8.012;2023-12-20T06:22:42;73955.50;;;-144.13;100.00
76374;BME280;65197;50.164;8.012;2023-12-20T06:25:07;73955.50;;;-144.13;100.00
76374;BME280;65197;50.164;8.012;2023-12-20T06:27:33;73951.59;;;-144.13;100.00
76374;BME280;65197;50.164;8.012;2023-12-20T06:29:58;73959.41;;;-144.13;100.00
76374;BME280;65197;50.164;8.012;2023-12-20T06:32:24;73963.31;;;-144.13;100.00
76374;BME280;65197;50.164;8.012;2023-12-20T06:34:49;73963.31;;;-144.13;100.00
76374;BME280;65197;50.164;8.012;2023-12-20T06:37:15;73971.13;;;-144.13;100.00
76374;BME280;65197;50.164;8.012;2023-12-20T06:39:40;73978.91;;;-144.13;100.00
76374;BME280;65197;50.164;8.012;2023-12-20T06:42:06;73967.22;;;-144.13;100.00
76374;BME280;65197;50.164;8.012;2023-12-20T06:44:31;73982.81;;;-144.13;100.00
76374;BME280;65197;50.164;8.012;2023-12-20T06:46:57;73986.72;;;-144.13;100.00
76374;BME280;65197;50.164;8.012;2023-12-20T06:49:23;73998.44;;;-144.13;100.00
76374;BME280;65197;50.164;8.012;2023-12-20T06:51:48;73994.53;;;-144.13;100.00
76374;BME280;65197;50.164;8.012;2023-12-20T06:54:13;73990.63;;;-144.13;100.00
76374;BME280;65197;50.164;8.012;2023-12-20T06:56:39;73982.81;;;-144.13;100.00
76374;BME280;65197;50.164;8.012;2023-12-20T06:59:04;73978.91;;;-144.13;100.00
76374;BME280;65197;50.164;8.012;2023-12-20T07:01:30;73975.03;;;-144.13;100.00
76374;BME280;65197;50.164;8.012;2023-12-20T07:03:55;73955.50;;;-144.13;100.00
76374;BME280;65197;50.164;8.012;2023-12-20T07:06:20;73939.91;;;-144.13;100.00
76374;BME280;65197;50.164;8.012;2023-12-20T07:08:46;73939.91;;;-144.13;100.00
76374;BME280;65197;50.164;8.012;2023-12-20T07:11:11;73936.00;;;-144.13;100.00
76374;BME280;65197;50.164;8.012;2023-12-20T07:13:37;73932.09;;;-144.13;100.00
76374;BME280;65197;50.164;8.012;2023-12-20T07:16:02;73943.81;;;-144.13;100.00
76374;BME280;65197;50.164;8.012;2023-12-20T07:18:28;73943.81;;;-144.13;100.00
76374;BME280;65197;50.164;8.012;2023-12-20T07:20:54;73943.81;;;-144.13;100.00
76374;BME280;65197;50.164;8.012;2023-12-20T07:23:20;73937.94;;;-144.13;100.00
76374;BME280;65197;50.164;8.012;2023-12-20T07:25:46;73939.91;;;-144.13;100.00
76374;BME280;65197;50.164;8.012;2023-12-20T07:28:12;73932.09;;;-144.13;100.00
76374;BME280;65197;50.164;8.012;2023-12-20T07:30:37;73937.94;;;-144.13;100.00
76374;BME280;65197;50.164;8.012;2023-12-20T07:33:02;73936.00;;;-144.13;100.00
76374;BME280;65197;50.164;8.012;2023-12-20T07:35:28;73936.00;;;-144.13;100.00
76374;BME280;65197;50.164;8.012;2023-12-20T07:37:53;73936.00;;;-144.13;100.00
76374;BME280;65197;50.164;8.012;2023-12-20T07:40:19;73936.00;;;-144.13;100.00
76374;BME280;65197;50.164;8.012;2023-12-20T07:42:44;73947.72;;;-144.13;100.00
76374;BME280;65197;50.164;8.012;2023-12-20T07:45:10;73955.50;;;-144.13;100.00
76374;BME280;65197;50.164;8.012;2023-12-20T07:47:36;73947.72;;;-144.13;100.00
76374;BME280;65197;50.164;8.012;2023-12-20T07:50:02;73949.66;;;-144.13;100.00
76374;BME280;65197;50.164;8.012;2023-12-20T07:52:28;73951.59;;;-144.13;100.00
76374;BME280;65197;50.164;8.012;2023-12-20T07:54:54;73939.91;;;-144.13;100.00
76374;BME280;65197;50.164;8.012;2023-12-20T07:57:19;73941.84;;;-144.13;100.00
76374;BME280;65197;50.164;8.012;2023-12-20T07:59:45;73945.75;;;-144.13;100.00
76374;BME280;65197;50.164;8.012;2023-12-20T08:02:10;73943.81;;;-144.13;100.00
76374;BME280;65197;50.164;8.012;2023-12-20T08:04:36;73936.00;;;-144.13;100.00
76374;BME280;65197;50.164;8.012;2023-12-20T08:07:01;73936.00;;;-144.13;100.00
76374;BME280;65197;50.164;8.012;2023-12-20T08:09:27;73932.09;;;-144.13;100.00
76374;BME280;65197;50.164;8.012;2023-12-20T08:11:52;73928.19;;;-144.13;100.00
76374;BME280;65197;50.164;8.012;2023-12-20T08:14:18;73926.25;;;-144.13;100.00
76374;BME280;65197;50.164;8.012;2023-12-20T08:16:43;73924.28;;;-144.13;100.00
76374;BME280;65197;50.164;8.012;2023-12-20T08:19:08;73928.19;;;-144.13;100.00
76374;BME280;65197;50.164;8.012;2023-12-20T08:21:34;73920.41;;;-144.13;100.00
76374;BME280;65197;50.164;8.012;2023-12-20T08:23:59;73918.44;;;-144.13;100.00
76374;BME280;65197;50.164;8.012;2023-12-20T08:26:26;73916.50;;;-144.13;100.00
76374;BME280;65197;50.164;8.012;2023-12-20T08:28:51;73912.59;;;-144.13;100.00
76374;BME280;65197;50.164;8.012;2023-12-20T08:31:17;73912.59;;;-144.13;100.00
76374;BME280;65197;50.164;8.012;2023-12-20T08:33:44;73912.59;;;-144.13;100.00
76374;BME280;65197;50.164;8.012;2023-12-20T08:36:10;73908.69;;;-144.13;100.00
76374;BME280;65197;50.164;8.012;2023-12-20T08:38:35;73904.78;;;-144.13;100.00
76374;BME280;65197;50.164;8.012;2023-12-20T08:41:01;73898.94;;;-144.13;100.00
76374;BME280;65197;50.164;8.012;2023-12-20T08:43:28;73900.88;;;-144.13;100.00
76374;BME280;65197;50.164;8.012;2023-12-20T08:45:53;73902.84;;;-144.13;100.00
76374;BME280;65197;50.164;8.012;2023-12-20T08:48:19;73900.88;;;-144.13;100.00
76374;BME280;65197;50.164;8.012;2023-12-20T08:50:44;73896.97;;;-144.13;100.00
76374;BME280;65197;50.164;8.012;2023-12-20T08:53:10;73893.09;;;-144.13;100.00
76374;BME280;65197;50.164;8.012;2023-12-20T08:55:35;73891.13;;;-144.13;100.00
76374;BME280;65197;50.164;8.012;2023-12-20T08:58:00;73873.56;;;-144.13;100.00
76374;BME280;65197;50.164;8.012;2023-12-20T09:00:26;73875.53;;;-144.13;100.00
76374;BME280;65197;50.164;8.012;2023-12-20T09:02:53;73867.72;;;-144.13;100.00
76374;BME280;65197;50.164;8.012;2023-12-20T09:05:19;73863.81;;;-144.13;100.00
76374;BME280;65197;50.164;8.012;2023-12-20T09:07:45;73859.91;;;-144.13;100.00
76374;BME280;65197;50.164;8.012;2023-12-20T09:10:10;73861.88;;;-144.13;100.00
76374;BME280;65197;50.164;8.012;2023-12-20T09:12:35;73854.06;;;-144.13;100.00
76374;BME280;65197;50.164;8.012;2023-12-20T09:15:05;73848.22;;;-144.13;100.00
76374;BME280;65197;50.164;8.012;2023-12-20T09:17:30;73842.34;;;-144.13;100.00
76374;BME280;65197;50.164;8.012;2023-12-20T09:19:56;73834.56;;;-144.13;100.00
76374;BME280;65197;50.164;8.012;2023-12-20T09:22:21;73838.47;;;-144.13;100.00
76374;BME280;65197;50.164;8.012;2023-12-20T09:24:47;73834.56;;;-144.13;100.00
76374;BME280;65197;50.164;8.012;2023-12-20T09:27:12;73832.59;;;-144.13;100.00
76374;BME280;65197;50.164;8.012;2023-12-20T09:29:37;73832.59;;;-144.13;100.00
76374;BME280;65197;50.164;8.012;2023-12-20T09:32:03;73830.66;;;-144.13;100.00
76374;BME280;65197;50.164;8.012;2023-12-20T09:34:29;73828.69;;;-144.13;100.00
76374;BME280;65197;50.164;8.012;2023-12-20T09:36:54;73832.59;;;-144.13;100.00
76374;BME280;65197;50.164;8.012;2023-12-20T09:39:20;73842.34;;;-144.13;100.00
76374;BME280;65197;50.164;8.012;2023-12-20T09:42:00;73822.84;;;-144.13;100.00
76374;BME280;65197;50.164;8.012;2023-12-20T09:44:26;73818.94;;;-144.13;100.00
76374;BME280;65197;50.164;8.012;2023-12-20T09:46:52;73820.91;;;-144.13;100.00
76374;BME280;65197;50.164;8.012;2023-12-20T09:49:19;73822.84;;;-144.13;100.00
76374;BME280;65197;50.164;8.012;2023-12-20T09:51:46;73824.81;;;-144.13;100.00
76374;BME280;65197;50.164;8.012;2023-12-20T09:54:14;73834.56;;;-144.13;100.00
76374;BME280;65197;50.164;8.012;2023-12-20T09:56:39;73830.66;;;-144.13;100.00
76374;BME280;65197;50.164;8.012;2023-12-20T09:59:04;73836.50;;;-144.13;100.00
76374;BME280;65197;50.164;8.012;2023-12-20T10:01:30;73832.59;;;-144.13;100.00
76374;BME280;65197;50.164;8.012;2023-12-20T10:03:57;73822.84;;;-144.13;100.00
76374;BME280;65197;50.164;8.012;2023-12-20T10:06:23;73818.94;;;-144.13;100.00
76374;BME280;65197;50.164;8.012;2023-12-20T10:08:49;73813.09;;;-144.13;100.00
76374;BME280;65197;50.164;8.012;2023-12-20T10:11:14;73803.34;;;-144.13;100.00
76374;BME280;65197;50.164;8.012;2023-12-20T10:13:40;73795.53;;;-144.13;100.00
76374;BME280;65197;50.164;8.012;2023-12-20T10:16:06;73777.97;;;-144.13;100.00
76374;BME280;65197;50.164;8.012;2023-12-20T10:18:33;73768.22;;;-144.13;100.00
76374;BME280;65197;50.164;8.012;2023-12-20T10:20:58;73779.94;;;-144.13;100.00
76374;BME280;65197;50.164;8.012;2023-12-20T10:23:24;73779.94;;;-144.13;100.00
76374;BME280;65197;50.164;8.012;2023-12-20T10:25:59;73776.03;;;-144.13;100.00
76374;BME280;65197;50.164;8.012;2023-12-20T10:28:25;73705.81;;;-144.13;100.00
76374;BME280;65197;50.164;8.012;2023-12-20T10:30:54;73662.88;;;-144.13;100.00
76374;BME280;65197;50.164;8.012;2023-12-20T10:33:27;73703.84;;;-144.13;100.00
76374;BME280;65197;50.164;8.012;2023-12-20T10:35:54;73725.31;;;-144.13;100.00
76374;BME280;65197;50.164;8.012;2023-12-20T10:38:19;73733.09;;;-144.13;100.00
76374;BME280;65197;50.164;8.012;2023-12-20T10:40:45;73737.00;;;-144.13;100.00
76374;BME280;65197;50.164;8.012;2023-12-20T10:43:11;73729.22;;;-144.13;100.00
76374;BME280;65197;50.164;8.012;2023-12-20T10:45:37;73740.91;;;-144.13;100.00
76374;BME280;65197;50.164;8.012;2023-12-20T10:48:03;73727.25;;;-144.13;100.00
76374;BME280;65197;50.164;8.012;2023-12-20T10:50:29;73713.59;;;-144.13;100.00
76374;BME280;65197;50.164;8.012;2023-12-20T10:52:55;73717.50;;;-144.13;100.00
76374;BME280;65197;50.164;8.012;2023-12-20T10:55:24;73731.16;;;-144.13;100.00
76374;BME280;65197;50.164;8.012;2023-12-20T10:58:08;73703.84;;;-144.13;100.00
76374;BME280;65197;50.164;8.012;2023-12-20T11:00:39;73688.25;;;-144.13;100.00
76374;BME280;65197;50.164;8.012;2023-12-20T11:03:09;73662.88;;;-144.13;100.00
76374;BME280;65197;50.164;8.012;2023-12-20T11:05:46;73658.97;;;-144.13;100.00
76374;BME280;65197;50.164;8.012;2023-12-20T11:08:25;73698.00;;;-144.13;100.00
76374;BME280;65197;50.164;8.012;2023-12-20T11:11:01;73717.50;;;-144.13;100.00
76374;BME280;65197;50.164;8.012;2023-12-20T11:13:37;73725.31;;;-144.13;100.00
76374;BME280;65197;50.164;8.012;2023-12-20T11:16:05;73740.91;;;-144.13;100.00
76374;BME280;65197;50.164;8.012;2023-12-20T11:18:31;73748.72;;;-144.13;100.00
76374;BME280;65197;50.164;8.012;2023-12-20T11:21:06;73760.41;;;-144.13;100.00
76374;BME280;65197;50.164;8.012;2023-12-20T11:23:32;73760.41;;;-144.13;100.00
76374;BME280;65197;50.164;8.012;2023-12-20T11:26:01;73768.22;;;-144.13;100.00
76374;BME280;65197;50.164;8.012;2023-12-20T11:28:27;73764.31;;;-144.13;100.00
76374;BME280;65197;50.164;8.012;2023-12-20T11:30:57;73776.03;;;-144.13;100.00
76374;BME280;65197;50.164;8.012;2023-12-20T11:33:35;73768.22;;;-144.13;100.00
76374;BME280;65197;50.164;8.012;2023-12-20T11:36:01;73768.22;;;-144.13;100.00
76374;BME280;65197;50.164;8.012;2023-12-20T11:38:27;73756.53;;;-144.13;100.00
76374;BME280;65197;50.164;8.012;2023-12-20T11:40:54;73752.63;;;-144.13;100.00
76374;BME280;65197;50.164;8.012;2023-12-20T11:43:30;73738.97;;;-144.13;100.00
76374;BME280;65197;50.164;8.012;2023-12-20T11:46:02;73717.50;;;-144.13;100.00
76374;BME280;65197;50.164;8.012;2023-12-20T11:48:28;73709.69;;;-144.13;100.00
76374;BME280;65197;50.164;8.012;2023-12-20T11:50:56;73711.66;;;-144.13;100.00
76374;BME280;65197;50.164;8.012;2023-12-20T11:53:21;73717.50;;;-144.13;100.00
76374;BME280;65197;50.164;8.012;2023-12-20T11:55:50;73698.00;;;-144.13;100.00
76374;BME280;65197;50.164;8.012;2023-12-20T11:58:16;73688.25;;;-144.13;100.00
76374;BME280;65197;50.164;8.012;2023-12-20T12:00:44;73666.78;;;-144.13;100.00
76374;BME280;65197;50.164;8.012;2023-12-20T12:03:10;73655.06;;;-144.13;100.00
76374;BME280;65197;50.164;8.012;2023-12-20T12:05:35;73645.31;;;-144.13;100.00
76374;BME280;65197;50.164;8.012;2023-12-20T12:08:01;73647.28;;;-144.13;100.00
76374;BME280;65197;50.164;8.012;2023-12-20T12:10:27;73651.19;;;-144.13;100.00
76374;BME280;65197;50.164;8.012;2023-12-20T12:12:53;73655.06;;;-144.13;100.00
76374;BME280;65197;50.164;8.012;2023-12-20T12:15:19;73662.88;;;-144.13;100.00
76374;BME280;65197;50.164;8.012;2023-12-20T12:17:52;73666.78;;;-144.13;100.00
76374;BME280;65197;50.164;8.012;2023-12-20T12:20:19;73678.50;;;-144.13;100.00
76374;BME280;65197;50.164;8.012;2023-12-20T12:22:45;73686.28;;;-144.13;100.00
76374;BME280;65197;50.164;8.012;2023-12-20T12:25:13;73694.09;;;-144.13;100.00